• Join FlightAware (Why Join?)
  • Login
  • US Flag 
12:26PM EST


 

Airport Tracker/Info


-or-


 

Live Flight TrackerFlight Track Log ✈ JST19 ✈ 28-Jul-2012 ✈ YBCG / OOL - RJBB / KIX

Flight Track Log - Related Links

Times and Time Zones

All times are in EDT time to prevent confusion due to time zone crossing. See the JST19 flight status page for this flight to view local times or setup timezone preferences in your user account.

Time Position Orientation Groundspeed Altitude Reporting Facility
EDT Latitude Longitude Course Direction KTS MPH feet Rate Location/Type
08:33PM -28.2088 153.5383 81° East 155 178 2,500  Level Aus ATC (RADAR)
08:34PM -28.2010 153.5920 58° Northeast 215 247 3,100 720 Climbing FlightAware
08:34PM -28.1842 153.6225 355° North 233 268 3,600 1,800 Climbing Aus ATC (RADAR)
08:36PM -28.0656 153.6116 350° North 301 346 6,600 2,340 Climbing Aus ATC (RADAR)
08:37PM -27.9734 153.5930 349° North 331 381 9,500 2,940 Climbing Aus ATC (RADAR)
08:37PM -27.9504 153.5882 350° North 331 381 10,300 2,580 Climbing Aus ATC (RADAR)
08:38PM -27.8295 153.5647 350° North 353 406 13,400 2,340 Climbing Aus ATC (RADAR)
08:39PM -27.7788 153.5551 350° North 364 419 14,400 1,860 Climbing Aus ATC (RADAR)
08:40PM -27.6550 153.5309 350° North 392 451 16,500 1,920 Climbing Aus ATC (RADAR)
08:40PM -27.6183 153.5237 350° North 396 456 17,300 2,400 Climbing Aus ATC (RADAR)
08:41PM -27.5270 153.5063 350° North 396 456 19,300 2,280 Climbing Aus ATC (RADAR)
08:41PM -27.4902 153.4992 349° North 398 458 20,000 2,100 Climbing Aus ATC (RADAR)
08:42PM -27.4259 153.4855 340° North 398 458 21,200 1,920 Climbing Aus ATC (RADAR)
08:43PM -27.3396 153.4495 340° North 391 450 22,800 1,860 Climbing Aus ATC (RADAR)
08:43PM -27.2784 153.4244 340° North 397 457 23,900 1,860 Climbing Aus ATC (RADAR)
08:44PM -27.1734 153.3819 339° North 395 455 25,800 1,920 Climbing Aus ATC (RADAR)
08:44PM -27.1600 153.3760 340° North 398 458 25,900 1,920 Climbing FlightAware
08:45PM -27.0873 153.3468 340° North 390 449 27,400 1,200 Climbing Aus ATC (RADAR)
08:46PM -27.0012 153.3114 340° North 395 455 27,900 720 Climbing Aus ATC (RADAR)
08:47PM -26.9395 153.2864 340° North 401 461 28,500 1,020 Climbing Aus ATC (RADAR)
08:47PM -26.8429 153.2474 340° North 399 459 29,500 1,020 Climbing Aus ATC (RADAR)
08:48PM -26.8166 153.2369 340° North 399 459 29,700 720 Climbing Aus ATC (RADAR)
08:48PM -26.7549 153.2116 340° North 402 463 30,100 660 Climbing Aus ATC (RADAR)
08:50PM -26.5841 153.1428 341° North 413 475 31,200 660 Climbing Aus ATC (RADAR)
08:50PM -26.5567 153.1320 340° North 415 478 31,400 480 Climbing Aus ATC (RADAR)
08:51PM -26.4928 153.1061 340° North 418 481 31,600 480 Climbing Aus ATC (RADAR)
08:52PM -26.4000 153.0690 340° North 422 486 32,100 720 Climbing Aus ATC (RADAR)
08:52PM -26.3351 153.0430 340° North 423 487 32,700 840 Climbing Aus ATC (RADAR)
08:53PM -26.2425 153.0064 340° North 421 484 33,300 660 Climbing Aus ATC (RADAR)
08:54PM -26.1781 152.9806 340° North 420 483 33,700 540 Climbing Aus ATC (RADAR)
08:55PM -26.0571 152.9321 340° North 426 490 34,200 420 Climbing Aus ATC (RADAR)
08:55PM -26.0289 152.9205 340° North 430 495 34,300 720 Climbing Aus ATC (RADAR)
08:55PM -25.9636 152.8947 340° North 426 490 34,800 720 Climbing Aus ATC (RADAR)
08:56PM -25.8608 152.8541 341° North 423 487 35,400 660 Climbing Aus ATC (RADAR)
08:57PM -25.8055 152.8324 340° North 420 483 35,800 660 Climbing Aus ATC (RADAR)
08:58PM -25.7048 152.7925 341° North 417 480 36,400 660 Climbing Aus ATC (RADAR)
08:58PM -25.6775 152.7820 340° North 415 478 36,600 720 Climbing Aus ATC (RADAR)
08:59PM -25.6139 152.7567 340° North 414 476 37,000 420 Climbing Aus ATC (RADAR)
08:59PM -25.5143 152.7172 340° North 415 478 37,300 240 Climbing Aus ATC (RADAR)
09:00PM -25.4869 152.7063 340° North 416 479 37,300 360 Level Aus ATC (RADAR)
09:00PM -25.4230 152.6812 340° North 417 480 37,600 540 Climbing Aus ATC (RADAR)
09:01PM -25.3317 152.6453 341° North 417 480 38,100 300 Climbing Aus ATC (RADAR)
09:02PM -25.2679 152.6206 341° North 417 480 38,100  Level Aus ATC (RADAR)
09:03PM -25.1675 152.5813 341° North 418 481 38,100  Level Aus ATC (RADAR)
09:03PM -25.1401 152.5707 340° North 418 481 38,100  Level Aus ATC (RADAR)
09:04PM -25.0674 152.5418 341° North 415 478 38,100  Level Aus ATC (RADAR)
09:05PM -24.9488 152.4959 341° North 416 479 38,100  Level Aus ATC (RADAR)
09:05PM -24.9215 152.4854 340° North 415 478 38,100  Level Aus ATC (RADAR)
09:05PM -24.8584 152.4605 340° North 413 475 38,100  Level Aus ATC (RADAR)
09:06PM -24.7590 152.4218 340° North 414 476 38,100  Level Aus ATC (RADAR)
09:07PM -24.6960 152.3971 341° North 412 474 38,100 60 Level Aus ATC (RADAR)
09:08PM -24.5958 152.3587 341° North 415 478 38,200 60 Climbing Aus ATC (RADAR)
09:08PM -24.5320 152.3341 340° North 417 480 38,200  Level Aus ATC (RADAR)
09:09PM -24.4596 152.3058 341° North 415 478 38,200  Level Aus ATC (RADAR)
09:10PM -24.3683 152.2704 341° North 418 481 38,200  Level Aus ATC (RADAR)
09:11PM -24.3046 152.2462 341° North 417 480 38,200  Level Aus ATC (RADAR)
09:11PM -24.2131 152.2107 341° North 420 483 38,200  Level Aus ATC (RADAR)
09:12PM -24.1490 152.1862 341° North 419 482 38,200  Level Aus ATC (RADAR)
09:13PM -24.0475 152.1470 341° North 422 486 38,200  Level Aus ATC (RADAR)
09:13PM -24.0200 152.1364 341° North 421 484 38,200  Level Aus ATC (RADAR)
09:14PM -23.9555 152.1118 341° North 421 484 38,200  Level Aus ATC (RADAR)
09:15PM -23.8549 152.0732 340° North 419 482 38,200  Level Aus ATC (RADAR)
09:15PM -23.8183 152.0591 341° North 419 482 38,200  Level Aus ATC (RADAR)
09:16PM -23.7540 152.0349 341° North 419 482 38,200  Level Aus ATC (RADAR)
09:16PM -23.6622 151.9994 341° North 421 484 38,200  Level Aus ATC (RADAR)
09:17PM -23.5980 151.9749 341° North 421 484 38,200  Level Aus ATC (RADAR)
09:18PM -23.4968 151.9365 340° North 420 483 38,200  Level Aus ATC (RADAR)
09:18PM -23.4691 151.9257 341° North 421 484 38,200  Level Aus ATC (RADAR)
09:19PM -23.3951 151.8976 341° North 422 486 38,200  Level Aus ATC (RADAR)
09:20PM -23.2751 151.8520 341° North 420 483 38,200  Level Aus ATC (RADAR)
09:20PM -23.2473 151.8416 341° North 421 484 38,200  Level Aus ATC (RADAR)
09:21PM -23.1826 151.8173 341° North 423 487 38,200  Level Aus ATC (RADAR)
09:22PM -23.0809 151.7788 341° North 424 488 38,200  Level Aus ATC (RADAR)
09:22PM -23.0161 151.7541 341° North 423 487 38,200  Level Aus ATC (RADAR)
09:23PM -22.9139 151.7153 341° North 426 490 38,200  Level Aus ATC (RADAR)
09:23PM -22.8860 151.7048 341° North 426 490 38,200  Level Aus ATC (RADAR)
09:24PM -22.8206 151.6802 341° North 427 491 38,200  Level Aus ATC (RADAR)
09:25PM -22.7171 151.6414 341° North 430 495 38,200  Level Aus ATC (RADAR)
09:25PM -22.6889 151.6306 341° North 430 495 38,200  Level Aus ATC (RADAR)
09:26PM -22.6130 151.6023 341° North 431 496 38,200  Level Aus ATC (RADAR)
09:27PM -22.5081 151.5634 342° North 434 499 38,200  Level Aus ATC (RADAR)
09:27PM -22.4412 151.5392 342° North 434 499 38,200  Level Aus ATC (RADAR)
09:28PM -22.3451 151.5047 342° North 437 503 38,200  Level Aus ATC (RADAR)
09:29PM -22.2780 151.4808 341° North 436 502 38,200  Level Aus ATC (RADAR)
09:30PM -22.1821 151.4462 342° North 438 504 38,200  Level Aus ATC (RADAR)
09:30PM -22.0957 151.4154 342° North 438 504 38,200  Level Aus ATC (RADAR)
09:31PM -22.0288 151.3914 342° North 436 502 38,200  Level Aus ATC (RADAR)
09:32PM -21.9224 151.3533 342° North 439 505 38,200  Level Aus ATC (RADAR)
09:32PM -21.8934 151.3428 342° North 440 506 38,200  Level Aus ATC (RADAR)
09:33PM -21.8253 151.3184 342° North 443 510 38,200  Level Aus ATC (RADAR)
09:34PM -21.7186 151.2810 342° North 440 506 38,200  Level Aus ATC (RADAR)
09:34PM -21.6507 151.2569 342° North 440 506 38,200  Level Aus ATC (RADAR)
09:35PM -21.5443 151.2189 341° North 440 506 38,200  Level Aus ATC (RADAR)
09:35PM -21.5156 151.2085 342° North 438 504 38,200  Level Aus ATC (RADAR)
09:36PM -21.4475 151.1842 342° North 442 509 38,200  Level Aus ATC (RADAR)
09:37PM -21.3305 151.1428 342° North 444 511 38,200  Level Aus ATC (RADAR)
09:37PM -21.2622 151.1186 342° North 445 512 38,200  Level Aus ATC (RADAR)
09:38PM -21.1446 151.0770 342° North 446 513 38,200  Level Aus ATC (RADAR)
09:39PM -21.0755 151.0527 342° North 449 517 38,200  Level Aus ATC (RADAR)
09:41PM -20.8985 150.9906 342° North 446 513 38,200  Level Aus ATC (RADAR)
09:41PM -20.8691 150.9802 342° North 446 513 38,200  Level Aus ATC (RADAR)
09:41PM -20.8004 150.9563 342° North 446 513 38,200  Level Aus ATC (RADAR)
09:42PM -20.7030 150.9219 342° North 444 511 38,200  Level Aus ATC (RADAR)
09:43PM -20.6346 150.8977 342° North 445 512 38,200  Level Aus ATC (RADAR)
09:44PM -20.5176 150.8568 342° North 444 511 38,200  Level Aus ATC (RADAR)
09:44PM -20.4492 150.8330 342° North 444 511 38,200  Level Aus ATC (RADAR)
09:45PM -20.3438 150.7961 342° North 434 499 38,200  Level Aus ATC (RADAR)
09:46PM -20.3158 150.7861 342° North 431 496 38,200  Level Aus ATC (RADAR)
09:46PM -20.2499 150.7634 342° North 428 493 38,200  Level Aus ATC (RADAR)
09:47PM -20.1371 150.7237 342° North 428 493 38,200  Level Aus ATC (RADAR)
09:48PM -20.0715 150.7010 342° North 426 490 38,200  Level Aus ATC (RADAR)
09:49PM -19.9694 150.6660 342° North 423 487 38,200  Level Aus ATC (RADAR)
09:49PM -19.9037 150.6433 342° North 427 491 38,200  Level Aus ATC (RADAR)
09:50PM -19.7729 150.5982 342° North 416 479 38,200  Level Aus ATC (RADAR)
09:51PM -19.7441 150.5880 342° North 424 488 38,200  Level Aus ATC (RADAR)
09:51PM -19.6781 150.5649 342° North 428 493 38,200  Level Aus ATC (RADAR)
09:52PM -19.5744 150.5292 342° North 425 489 38,200  Level Aus ATC (RADAR)
09:53PM -19.5086 150.5069 342° North 425 489 38,200  Level Aus ATC (RADAR)
09:54PM -19.3961 150.4681 342° North 426 490 38,200  Level Aus ATC (RADAR)
09:54PM -19.3307 150.4455 342° North 424 488 38,200  Level Aus ATC (RADAR)
09:55PM -19.1991 150.4002 342° North 429 494 38,200  Level Aus ATC (RADAR)
09:56PM -19.1713 150.3904 342° North 427 491 38,200  Level Aus ATC (RADAR)
09:56PM -19.1057 150.3681 342° North 421 484 38,200  Level Aus ATC (RADAR)
09:57PM -18.9927 150.3296 342° North 425 489 38,200  Level Aus ATC (RADAR)
09:58PM -18.9281 150.3075 342° North 420 483 38,200  Level Aus ATC (RADAR)
09:59PM -18.8058 150.2655 342° North 425 489 38,200  Level Aus ATC (RADAR)
09:59PM -18.7401 150.2430 342° North 426 490 38,200  Level Aus ATC (RADAR)
10:00PM -18.6278 150.2049 342° North 425 489 38,200  Level Aus ATC (RADAR)
10:01PM -18.6001 150.1952 342° North 422 486 38,200  Level Aus ATC (RADAR)
10:01PM -18.5346 150.1730 342° North 424 488 38,200  Level Aus ATC (RADAR)
10:02PM -18.4222 150.1346 342° North 423 487 38,200  Level Aus ATC (RADAR)
10:03PM -18.3565 150.1125 342° North 424 488 38,200  Level Aus ATC (RADAR)
10:04PM -18.2434 150.0738 342° North 426 490 38,200  Level Aus ATC (RADAR)
10:05PM -18.1684 150.0486 342° North 426 490 38,200 -240 Level Aus ATC (RADAR)
10:05PM -18.1180 150.0310 342° North 424 488 38,000  Descending FlightAware
10:06PM -18.0558 150.0103 343° North 426 490 38,200 180 Climbing Aus ATC (RADAR)
10:06PM -18.0279 150.0011 342° North 424 488 38,200  Level Aus ATC (RADAR)
10:06PM -17.9622 149.9788 342° North 424 488 38,200  Level Aus ATC (RADAR)
10:07PM -17.8497 149.9410 342° North 424 488 38,200  Level Aus ATC (RADAR)
10:08PM -17.7839 149.9187 342° North 426 490 38,200  Level Aus ATC (RADAR)
10:09PM -17.6510 149.8736 342° North 431 496 38,200  Level Aus ATC (RADAR)
10:10PM -17.5554 149.8415 342° North 433 498 38,200  Level Aus ATC (RADAR)
10:11PM -17.4696 149.8122 343° North 433 498 38,200  Level Aus ATC (RADAR)
10:11PM -17.4030 149.7904 342° North 431 496 38,200  Level Aus ATC (RADAR)
10:12PM -17.2787 149.7483 342° North 435 501 38,200  Level Aus ATC (RADAR)
10:13PM -17.2114 149.7260 341° North 435 501 38,200 -120 Level Aus ATC (RADAR)
10:14PM -17.1025 149.6877 342° North 447 514 38,100 -120 Descending Aus ATC (RADAR)
10:14PM -17.0331 149.6642 343° North 450 518 38,100  Level Aus ATC (RADAR)
10:16PM -16.9008 149.6208 343° North 434 499 38,100  Level Aus ATC (RADAR)
10:16PM -16.8718 149.6114 342° North 435 501 38,100  Level Aus ATC (RADAR)
10:17PM -16.7947 149.5856 342° North 435 501 38,100  Level Aus ATC (RADAR)
10:18PM -16.6795 149.5472 342° North 433 498 38,100  Level Aus ATC (RADAR)
10:18PM -16.6020 149.5212 342° North 437 503 38,100  Level Aus ATC (RADAR)
10:19PM -16.4851 149.4824 342° North 441 507 38,100  Level Aus ATC (RADAR)
10:20PM -16.4174 149.4597 342° North 439 505 38,100  Level Aus ATC (RADAR)
10:21PM -16.3010 149.4209 342° North 440 506 38,100  Level Aus ATC (RADAR)
10:21PM -16.2621 149.4081 342° North 439 505 38,100  Level Aus ATC (RADAR)
10:22PM -16.1947 149.3855 342° North 437 503 38,100  Level Aus ATC (RADAR)
10:23PM -16.0694 149.3436 343° North 437 503 38,100  Level Aus ATC (RADAR)
10:23PM -15.9905 149.3179 342° North 439 505 38,100  Level Aus ATC (RADAR)
10:24PM -15.8924 149.2851 342° North 442 509 38,100  Level Aus ATC (RADAR)
10:25PM -15.8161 149.2598 342° North 438 504 38,100  Level Aus ATC (RADAR)
10:27PM -15.5987 149.1879 343° North 450 518 38,100  Level Aus ATC (RADAR)
10:28PM -15.4810 149.1496 343° North 442 509 38,100  Level Aus ATC (RADAR)
10:28PM -15.4124 149.1275 342° North 444 511 38,100  Level Aus ATC (RADAR)
10:29PM -15.2960 149.0889 343° North 439 505 38,100  Level Aus ATC (RADAR)
10:30PM -15.2273 149.0668 342° North 441 507 38,100  Level Aus ATC (RADAR)
10:31PM -15.0903 149.0217 343° North 441 507 38,100  Level Aus ATC (RADAR)
10:31PM -15.0608 149.0123 342° North 442 509 38,100  Level Aus ATC (RADAR)
10:32PM -14.9820 148.9862 343° North 443 510 38,100  Level Aus ATC (RADAR)
10:33PM -14.8445 148.9419 342° North 444 511 38,100  Level Aus ATC (RADAR)
10:34PM -14.7761 148.9192 343° North 442 509 38,100  Level Aus ATC (RADAR)
10:35PM -14.6702 148.8851 342° North 436 502 38,100  Level Aus ATC (RADAR)
10:35PM -14.5992 148.8609 343° North 446 513 38,100  Level Aus ATC (RADAR)
10:36PM -14.4662 148.8198 342° North 435 501 38,100  Level Aus ATC (RADAR)
10:38PM -14.2454 148.7457 344° North 466 536 38,100  Level Aus ATC (RADAR)
10:39PM -14.1789 148.7257 343° North 448 516 38,100  Level Aus ATC (RADAR)
10:40PM -14.0613 148.6880 343° North 443 510 38,100  Level Aus ATC (RADAR)
10:40PM -13.9924 148.6660 342° North 442 509 38,100  Level Aus ATC (RADAR)
10:41PM -13.8735 148.6272 343° North 444 511 38,100  Level Aus ATC (RADAR)
10:42PM -13.8443 148.6180 343° North 443 510 38,100  Level Aus ATC (RADAR)
10:42PM -13.7759 148.5965 343° North 441 507 38,100 -120 Level Aus ATC (RADAR)
10:43PM -13.6683 148.5618 346° North 440 506 38,000  Descending Aus ATC (RADAR)
10:46PM -13.2709 148.4322 346° North 38,000  Level Aus ATC (Calculated)
10:51PM -12.7739 148.2896 346° North  Level FlightAware Approximate
10:52PM -12.6569 148.2561 346° North  Level FlightAware Approximate
10:53PM -12.5400 148.2226 346° North  Level FlightAware Approximate
10:54PM -12.4230 148.1892 346° North  Level FlightAware Approximate
10:55PM -12.3061 148.1558 346° North  Level FlightAware Approximate
10:56PM -12.1891 148.1225 346° North  Level FlightAware Approximate
10:57PM -12.0721 148.0891 346° North  Level FlightAware Approximate
10:58PM -11.9781 148.0135 346° North  Level FlightAware Approximate
10:59PM -11.8394 147.9719 346° North 38,000  Level Aus ATC (Calculated)
11:00PM -11.7213 147.9431 346° North  Level FlightAware Approximate
11:01PM -11.6032 147.9144 346° North  Level FlightAware Approximate
11:02PM -11.4851 147.8857 346° North  Level FlightAware Approximate
11:03PM -11.3670 147.8569 346° North  Level FlightAware Approximate
11:04PM -11.2488 147.8282 346° North  Level FlightAware Approximate
11:05PM -11.1307 147.7996 346° North  Level FlightAware Approximate
11:06PM -11.0126 147.7710 346° North  Level FlightAware Approximate
11:07PM -10.8945 147.7423 346° North  Level FlightAware Approximate
11:08PM -10.7763 147.7137 346° North  Level FlightAware Approximate
11:09PM -10.6582 147.6852 346° North  Level FlightAware Approximate
11:10PM -10.5400 147.6566 346° North  Level FlightAware Approximate
11:11PM -10.4219 147.6281 346° North  Level FlightAware Approximate
11:12PM -10.3038 147.5996 346° North  Level FlightAware Approximate
11:13PM -10.1856 147.5711 346° North  Level FlightAware Approximate
11:14PM -10.0674 147.5427 346° North  Level FlightAware Approximate
11:15PM -9.9493 147.5142 346° North  Level FlightAware Approximate
11:16PM -9.8311 147.4858 346° North  Level FlightAware Approximate
11:17PM -9.7108 147.4690 346° North  Level FlightAware Approximate
11:18PM -9.5905 147.4523 346° North  Level FlightAware Approximate
11:19PM -9.4702 147.4355 346° North  Level FlightAware Approximate
11:20PM -9.3499 147.4188 346° North  Level FlightAware Approximate
11:21PM -9.2296 147.4021 346° North  Level FlightAware Approximate
11:22PM -9.1093 147.3853 346° North  Level FlightAware Approximate
11:23PM -8.9890 147.3686 346° North  Level FlightAware Approximate
11:24PM -8.8687 147.3519 346° North  Level FlightAware Approximate
11:25PM -8.7484 147.3353 346° North  Level FlightAware Approximate
11:26PM -8.6281 147.3186 346° North  Level FlightAware Approximate
11:27PM -8.5078 147.3020 346° North  Level FlightAware Approximate
11:28PM -8.3875 147.2853 346° North  Level FlightAware Approximate
11:29PM -8.2672 147.2687 346° North  Level FlightAware Approximate
11:30PM -8.1469 147.2520 346° North  Level FlightAware Approximate
11:31PM -8.0266 147.2354 346° North  Level FlightAware Approximate
11:32PM -7.9063 147.2188 346° North  Level FlightAware Approximate
11:33PM -7.7860 147.2022 346° North  Level FlightAware Approximate
11:34PM -7.6656 147.1856 346° North  Level FlightAware Approximate
11:35PM -7.5453 147.1691 346° North  Level FlightAware Approximate
11:36PM -7.4250 147.1525 346° North  Level FlightAware Approximate
11:37PM -7.3047 147.1359 346° North  Level FlightAware Approximate
11:38PM -7.1844 147.1194 346° North  Level FlightAware Approximate
11:39PM -7.0641 147.1028 346° North  Level FlightAware Approximate
11:40PM -6.9438 147.0863 346° North  Level FlightAware Approximate
11:41PM -6.8235 147.0698 346° North  Level FlightAware Approximate
11:42PM -6.7032 147.0533 346° North  Level FlightAware Approximate
11:43PM -6.5825 147.0392 346° North  Level FlightAware Approximate
11:44PM -6.4619 147.0252 346° North  Level FlightAware Approximate
11:45PM -6.3413 147.0112 345° North  Level FlightAware Approximate
11:46PM -6.2206 146.9973 345° North  Level FlightAware Approximate
11:47PM -6.1000 146.9833 345° North  Level FlightAware Approximate
11:48PM -5.9794 146.9693 345° North  Level FlightAware Approximate
11:49PM -5.8587 146.9553 345° North  Level FlightAware Approximate
11:50PM -5.7381 146.9413 345° North  Level FlightAware Approximate
11:51PM -5.6175 146.9274 345° North  Level FlightAware Approximate
11:52PM -5.4969 146.9134 345° North  Level FlightAware Approximate
11:53PM -5.3762 146.8995 345° North  Level FlightAware Approximate
11:54PM -5.2556 146.8855 345° North  Level FlightAware Approximate
11:55PM -5.1350 146.8716 345° North  Level FlightAware Approximate
11:56PM -5.0143 146.8576 345° North  Level FlightAware Approximate
11:57PM -4.8937 146.8437 345° North  Level FlightAware Approximate
11:58PM -4.7731 146.8298 345° North  Level FlightAware Approximate
11:59PM -4.6525 146.8159 345° North  Level FlightAware Approximate
12:00AM -4.5318 146.8019 345° North  Level FlightAware Approximate
12:01AM -4.4112 146.7880 345° North  Level FlightAware Approximate
12:02AM -4.2906 146.7741 345° North  Level FlightAware Approximate
12:03AM -4.1699 146.7602 345° North  Level FlightAware Approximate
12:04AM -4.0493 146.7463 345° North  Level FlightAware Approximate
12:05AM -3.9287 146.7324 345° North  Level FlightAware Approximate
12:06AM -3.8080 146.7185 345° North  Level FlightAware Approximate
12:07AM -3.6874 146.7047 345° North  Level FlightAware Approximate
12:08AM -3.5668 146.6908 345° North  Level FlightAware Approximate
12:09AM -3.4461 146.6769 345° North  Level FlightAware Approximate
12:10AM -3.3255 146.6630 345° North  Level FlightAware Approximate
12:11AM -3.2048 146.6491 345° North  Level FlightAware Approximate
12:12AM -3.0842 146.6353 345° North  Level FlightAware Approximate
12:13AM -2.9636 146.6214 345° North  Level FlightAware Approximate
12:14AM -2.8429 146.6075 345° North  Level FlightAware Approximate
12:15AM -2.7223 146.5936 345° North  Level FlightAware Approximate
12:16AM -2.6016 146.5798 345° North  Level FlightAware Approximate
12:17AM -2.4810 146.5659 345° North  Level FlightAware Approximate
12:18AM -2.3604 146.5521 345° North  Level FlightAware Approximate
12:19AM -2.2397 146.5382 345° North  Level FlightAware Approximate
12:20AM -2.1191 146.5244 345° North  Level FlightAware Approximate
12:21AM -1.9984 146.5105 345° North  Level FlightAware Approximate
12:22AM -1.8778 146.4967 345° North  Level FlightAware Approximate
12:23AM -1.7572 146.4828 345° North  Level FlightAware Approximate
12:24AM -1.6365 146.4690 345° North  Level FlightAware Approximate
12:25AM -1.5159 146.4552 345° North  Level FlightAware Approximate
12:26AM -1.3952 146.4413 345° North  Level FlightAware Approximate
12:27AM -1.2746 146.4275 345° North  Level FlightAware Approximate
12:28AM -1.1540 146.4136 345° North  Level FlightAware Approximate
12:29AM -1.0333 146.3998 344° North  Level FlightAware Approximate
12:30AM -0.9127 146.3860 344° North  Level FlightAware Approximate
12:31AM -0.7920 146.3721 344° North  Level FlightAware Approximate
12:32AM -0.6714 146.3583 344° North  Level FlightAware Approximate
12:33AM -0.5508 146.3445 344° North  Level FlightAware Approximate
12:34AM -0.4301 146.3306 344° North  Level FlightAware Approximate
12:35AM -0.3095 146.3168 344° North  Level FlightAware Approximate
12:36AM -0.1888 146.3030 344° North  Level FlightAware Approximate
12:37AM -0.0682 146.2891 344° North  Level FlightAware Approximate
12:38AM 0.0526 146.2767 344° North  Level FlightAware Approximate
12:39AM 0.1734 146.2644 344° North  Level FlightAware Approximate
12:40AM 0.2942 146.2520 344° North  Level FlightAware Approximate
12:41AM 0.4150 146.2396 344° North  Level FlightAware Approximate
12:42AM 0.5358 146.2272 344° North  Level FlightAware Approximate
12:43AM 0.6566 146.2149 344° North  Level FlightAware Approximate
12:44AM 0.7774 146.2025 344° North  Level FlightAware Approximate
12:45AM 0.8982 146.1901 344° North  Level FlightAware Approximate
12:46AM 1.0190 146.1777 344° North  Level FlightAware Approximate
12:47AM 1.1398 146.1654 344° North  Level FlightAware Approximate
12:48AM 1.2606 146.1530 344° North  Level FlightAware Approximate
12:49AM 1.3814 146.1406 344° North  Level FlightAware Approximate
12:50AM 1.5022 146.1283 344° North  Level FlightAware Approximate
12:51AM 1.6230 146.1159 344° North  Level FlightAware Approximate
12:52AM 1.7438 146.1035 344° North  Level FlightAware Approximate
12:53AM 1.8646 146.0911 344° North  Level FlightAware Approximate
12:54AM 1.9854 146.0787 344° North  Level FlightAware Approximate
12:55AM 2.1062 146.0663 344° North  Level FlightAware Approximate
12:56AM 2.2270 146.0540 344° North  Level FlightAware Approximate
12:57AM 2.3478 146.0416 344° North  Level FlightAware Approximate
12:58AM 2.4686 146.0292 344° North  Level FlightAware Approximate
12:59AM 2.5894 146.0168 344° North  Level FlightAware Approximate
01:00AM 2.7102 146.0044 343° North  Level FlightAware Approximate
01:01AM 2.8310 145.9920 343° North  Level FlightAware Approximate
01:02AM 2.9518 145.9796 343° North  Level FlightAware Approximate
01:03AM 3.0726 145.9672 343° North  Level FlightAware Approximate
01:04AM 3.1934 145.9548 343° North  Level FlightAware Approximate
01:05AM 3.3142 145.9424 343° North  Level FlightAware Approximate
01:06AM 3.4350 145.9300 343° North  Level FlightAware Approximate
01:07AM 3.5558 145.9176 343° North  Level FlightAware Approximate
01:08AM 3.6765 145.9051 343° North  Level FlightAware Approximate
01:09AM 3.7973 145.8927 343° North  Level FlightAware Approximate
01:10AM 3.9181 145.8803 343° North  Level FlightAware Approximate
01:11AM 4.0389 145.8679 343° North  Level FlightAware Approximate
01:12AM 4.1597 145.8554 343° North  Level FlightAware Approximate
01:13AM 4.2805 145.8430 343° North  Level FlightAware Approximate
01:14AM 4.4013 145.8306 343° North  Level FlightAware Approximate
01:15AM 4.5221 145.8181 343° North  Level FlightAware Approximate
01:16AM 4.6429 145.8057 343° North  Level FlightAware Approximate
01:17AM 4.7637 145.7932 343° North  Level FlightAware Approximate
01:18AM 4.8844 145.7808 343° North  Level FlightAware Approximate
01:19AM 5.0052 145.7683 343° North  Level FlightAware Approximate
01:20AM 5.1259 145.7542 343° North  Level FlightAware Approximate
01:21AM 5.2465 145.7401 343° North  Level FlightAware Approximate
01:22AM 5.3671 145.7259 343° North  Level FlightAware Approximate
01:23AM 5.4877 145.7118 343° North  Level FlightAware Approximate
01:24AM 5.6083 145.6977 342° North  Level FlightAware Approximate
01:25AM 5.7289 145.6835 342° North  Level FlightAware Approximate
01:26AM 5.8495 145.6694 342° North  Level FlightAware Approximate
01:27AM 5.9701 145.6552 342° North  Level FlightAware Approximate
01:28AM 6.0907 145.6411 342° North  Level FlightAware Approximate
01:29AM 6.2113 145.6269 342° North  Level FlightAware Approximate
01:30AM 6.3320 145.6127 342° North  Level FlightAware Approximate
01:31AM 6.4526 145.5985 342° North  Level FlightAware Approximate
01:32AM 6.5732 145.5843 342° North  Level FlightAware Approximate
01:33AM 6.6938 145.5701 342° North  Level FlightAware Approximate
01:34AM 6.8144 145.5559 342° North  Level FlightAware Approximate
01:35AM 6.9350 145.5417 342° North  Level FlightAware Approximate
01:36AM 7.0556 145.5275 342° North  Level FlightAware Approximate
01:37AM 7.1762 145.5133 342° North  Level FlightAware Approximate
01:38AM 7.2968 145.4991 342° North  Level FlightAware Approximate
01:39AM 7.4174 145.4848 342° North  Level FlightAware Approximate
01:40AM 7.5380 145.4706 342° North  Level FlightAware Approximate
01:41AM 7.6586 145.4563 342° North  Level FlightAware Approximate
01:42AM 7.7792 145.4420 342° North  Level FlightAware Approximate
01:43AM 7.8998 145.4278 342° North  Level FlightAware Approximate
01:44AM 8.0204 145.4135 341° North  Level FlightAware Approximate
01:45AM 8.1410 145.3992 341° North  Level FlightAware Approximate
01:46AM 8.2616 145.3849 341° North  Level FlightAware Approximate
01:47AM 8.3822 145.3706 341° North  Level FlightAware Approximate
01:48AM 8.5028 145.3563 341° North  Level FlightAware Approximate
01:49AM 8.6234 145.3419 341° North  Level FlightAware Approximate
01:50AM 8.7440 145.3276 341° North  Level FlightAware Approximate
01:51AM 8.8646 145.3133 341° North  Level FlightAware Approximate
01:52AM 8.9852 145.2989 341° North  Level FlightAware Approximate
01:53AM 9.1058 145.2845 341° North  Level FlightAware Approximate
01:54AM 9.2264 145.2702 341° North  Level FlightAware Approximate
01:55AM 9.3470 145.2558 341° North  Level FlightAware Approximate
01:56AM 9.4676 145.2414 341° North  Level FlightAware Approximate
01:57AM 9.5882 145.2270 341° North  Level FlightAware Approximate
01:58AM 9.7088 145.2126 341° North  Level FlightAware Approximate
01:59AM 9.8294 145.1982 341° North  Level FlightAware Approximate
02:00AM 9.9500 145.1837 341° North  Level FlightAware Approximate
02:01AM 10.0706 145.1693 340° North  Level FlightAware Approximate
02:02AM 10.1912 145.1548 340° North  Level FlightAware Approximate
02:03AM 10.3118 145.1404 340° North  Level FlightAware Approximate
02:04AM 10.4323 145.1259 340° North  Level FlightAware Approximate
02:05AM 10.5529 145.1114 340° North  Level FlightAware Approximate
02:06AM 10.6735 145.0969 340° North  Level FlightAware Approximate
02:07AM 10.7941 145.0824 340° North  Level FlightAware Approximate
02:08AM 10.9147 145.0679 340° North  Level FlightAware Approximate
02:09AM 11.0353 145.0533 340° North  Level FlightAware Approximate
02:10AM 11.1559 145.0388 340° North  Level FlightAware Approximate
02:11AM 11.2765 145.0242 340° North  Level FlightAware Approximate
02:12AM 11.3971 145.0096 340° North  Level FlightAware Approximate
02:13AM 11.5176 144.9951 340° North  Level FlightAware Approximate
02:14AM 11.6382 144.9805 340° North  Level FlightAware Approximate
02:15AM 11.7588 144.9659 340° North  Level FlightAware Approximate
02:16AM 11.8678 144.9893 339° North  Level FlightAware Approximate
02:17AM 11.9877 144.9700 339° North  Level FlightAware Approximate
02:18AM 12.1076 144.9507 339° North  Level FlightAware Approximate
02:19AM 12.2276 144.9314 339° North  Level FlightAware Approximate
02:20AM 12.3476 144.9120 339° North  Level FlightAware Approximate
02:21AM 12.4675 144.8927 339° North  Level FlightAware Approximate
02:22AM 12.5875 144.8733 339° North  Level FlightAware Approximate
02:23AM 12.7074 144.8539 339° North  Level FlightAware Approximate
02:24AM 12.8256 144.8277 339° North  Level FlightAware Approximate
02:25AM 12.9395 144.7844 339° North  Level Estimated
02:26AM 13.8233 144.4470 339° North  Level FlightAware Approximate
02:27AM 13.9371 144.4034 339° North  Level Estimated
02:28AM 14.0401 144.3638 339° North  Level FlightAware Approximate
02:29AM 14.1538 144.3201 339° North  Level Estimated
02:30AM 14.2704 144.2753 339° North  Level FlightAware Approximate
02:31AM 14.3841 144.2315 339° North  Level Estimated
02:32AM 14.5006 144.1866 339° North  Level FlightAware Approximate
02:33AM 14.6144 144.1427 339° North  Level Estimated
02:34AM 14.7309 144.0977 339° North  Level FlightAware Approximate
02:35AM 14.8446 144.0537 339° North  Level Estimated
02:36AM 14.9611 144.0086 339° North  Level FlightAware Approximate
02:37AM 15.0748 143.9645 339° North  Level Estimated
02:38AM 15.1777 143.9245 339° North  Level FlightAware Approximate
02:39AM 15.2914 143.8804 339° North  Level Estimated
02:40AM 15.4078 143.8351 339° North  Level FlightAware Approximate
02:41AM 15.5215 143.7908 338° Northwest  Level Estimated
02:42AM 15.6379 143.7454 338° Northwest  Level FlightAware Approximate
02:43AM 15.7516 143.7010 338° Northwest  Level Estimated
02:44AM 15.8680 143.6555 338° Northwest  Level FlightAware Approximate
02:45AM 15.9816 143.6110 338° Northwest  Level Estimated
02:46AM 16.0980 143.5654 338° Northwest  Level FlightAware Approximate
02:47AM 16.2116 143.5209 338° Northwest  Level Estimated
02:48AM 16.3144 143.4805 338° Northwest  Level FlightAware Approximate
02:49AM 16.4280 143.4358 338° Northwest  Level Estimated
02:50AM 16.5444 143.3900 338° Northwest  Level FlightAware Approximate
02:51AM 16.6580 143.3452 338° Northwest  Level Estimated
02:52AM 16.7743 143.2993 338° Northwest  Level FlightAware Approximate
02:53AM 16.8879 143.2544 338° Northwest  Level Estimated
02:54AM 17.0042 143.2084 338° Northwest  Level FlightAware Approximate
02:55AM 17.1177 143.1634 338° Northwest  Level Estimated
02:56AM 17.2340 143.1172 338° Northwest  Level FlightAware Approximate
02:57AM 17.3475 143.0721 338° Northwest  Level Estimated
02:58AM 17.4503 143.0312 338° Northwest  Level FlightAware Approximate
02:59AM 17.5638 142.9860 338° Northwest  Level Estimated
03:00AM 17.6800 142.9396 338° Northwest  Level FlightAware Approximate
03:01AM 17.7935 142.8943 338° Northwest  Level Estimated
03:02AM 17.9097 142.8478 338° Northwest  Level FlightAware Approximate
03:03AM 18.0232 142.8024 338° Northwest  Level Estimated
03:04AM 18.1394 142.7558 338° Northwest  Level FlightAware Approximate
03:05AM 18.2528 142.7102 338° Northwest  Level Estimated
03:06AM 18.3690 142.6634 338° Northwest  Level FlightAware Approximate
03:07AM 18.4824 142.6177 338° Northwest  Level Estimated
03:08AM 18.5851 142.5763 338° Northwest  Level FlightAware Approximate
03:09AM 18.6985 142.5305 338° Northwest  Level Estimated
03:10AM 18.8146 142.4836 338° Northwest  Level FlightAware Approximate
03:11AM 18.9280 142.4376 338° Northwest  Level Estimated
03:12AM 19.0441 142.3905 338° Northwest  Level FlightAware Approximate
03:13AM 19.1574 142.3445 338° Northwest  Level Estimated
03:14AM 19.2735 142.2972 338° Northwest  Level FlightAware Approximate
03:15AM 19.3868 142.2510 338° Northwest  Level Estimated
03:16AM 19.5029 142.2037 338° Northwest  Level FlightAware Approximate
03:17AM 19.6162 142.1573 338° Northwest  Level Estimated
03:18AM 19.7188 142.1154 338° Northwest  Level FlightAware Approximate
03:19AM 19.8320 142.0689 338° Northwest  Level Estimated
03:20AM 19.9480 142.0213 338° Northwest  Level FlightAware Approximate
03:21AM 20.0613 141.9747 338° Northwest  Level Estimated
03:22AM 20.1773 141.9269 338° Northwest  Level FlightAware Approximate
03:23AM 20.2905 141.8802 338° Northwest  Level Estimated
03:24AM 20.4065 141.8323 338° Northwest  Level FlightAware Approximate
03:25AM 20.5197 141.7854 337° Northwest  Level Estimated
03:26AM 20.6356 141.7374 337° Northwest  Level FlightAware Approximate
03:27AM 20.7488 141.6904 337° Northwest  Level Estimated
03:28AM 20.8512 141.6478 337° Northwest  Level FlightAware Approximate
03:29AM 20.9644 141.6007 337° Northwest  Level Estimated
03:30AM 21.0803 141.5523 337° Northwest  Level FlightAware Approximate
03:31AM 21.1934 141.5051 337° Northwest  Level Estimated
03:32AM 21.3093 141.4566 337° Northwest  Level FlightAware Approximate
03:33AM 21.4224 141.4091 337° Northwest  Level Estimated
03:34AM 21.5382 141.3605 337° Northwest  Level FlightAware Approximate
03:35AM 21.6513 141.3129 337° Northwest  Level Estimated
03:36AM 21.7671 141.2641 337° Northwest  Level FlightAware Approximate
03:37AM 21.8801 141.2164 337° Northwest  Level Estimated
03:38AM 21.9825 141.1732 337° Northwest  Level FlightAware Approximate
03:39AM 22.0955 141.1253 337° Northwest  Level Estimated
03:40AM 22.2112 141.0762 337° Northwest  Level FlightAware Approximate
03:41AM 22.3242 141.0282 337° Northwest  Level Estimated
03:42AM 22.4399 140.9789 337° Northwest  Level FlightAware Approximate
03:43AM 22.5529 140.9307 337° Northwest  Level Estimated
03:44AM 22.6686 140.8813 337° Northwest  Level FlightAware Approximate
03:45AM 22.7815 140.8330 337° Northwest  Level Estimated
03:46AM 22.8972 140.7834 337° Northwest  Level FlightAware Approximate
03:47AM 23.0101 140.7349 337° Northwest  Level Estimated
03:48AM 23.1123 140.6909 337° Northwest  Level FlightAware Approximate
03:49AM 23.2252 140.6422 337° Northwest  Level Estimated
03:50AM 23.3407 140.5923 337° Northwest  Level FlightAware Approximate
03:51AM 23.4536 140.5435 337° Northwest  Level Estimated
03:52AM 23.5692 140.4934 337° Northwest  Level FlightAware Approximate
03:53AM 23.6820 140.4444 337° Northwest  Level Estimated
03:54AM 23.7975 140.3941 336° Northwest  Level FlightAware Approximate
03:55AM 23.9103 140.3450 336° Northwest  Level Estimated
03:56AM 24.0258 140.2945 336° Northwest  Level FlightAware Approximate
03:57AM 24.1386 140.2452 336° Northwest  Level Estimated
03:58AM 24.2406 140.2005 336° Northwest  Level FlightAware Approximate
03:59AM 24.3533 140.1509 336° Northwest  Level Estimated
04:00AM 24.4688 140.1001 336° Northwest  Level FlightAware Approximate
04:01AM 24.5815 140.0504 336° Northwest  Level Estimated
04:02AM 24.6969 139.9995 336° Northwest  Level FlightAware Approximate
04:03AM 24.8095 139.9496 336° Northwest  Level Estimated
04:04AM 24.9249 139.8984 336° Northwest  Level FlightAware Approximate
04:05AM 25.0375 139.8484 336° Northwest  Level Estimated
04:06AM 25.1395 139.8030 336° Northwest  Level FlightAware Approximate
04:07AM 25.2521 139.7528 336° Northwest  Level Estimated
04:08AM 25.3673 139.7012 336° Northwest  Level FlightAware Approximate
04:09AM 25.4799 139.6508 336° Northwest  Level Estimated
04:10AM 25.5952 139.5991 336° Northwest  Level FlightAware Approximate
04:11AM 25.7077 139.5485 336° Northwest  Level Estimated
04:12AM 25.8229 139.4965 336° Northwest  Level FlightAware Approximate
04:13AM 25.9354 139.4457 335° Northwest  Level Estimated
04:14AM 26.0506 139.3936 335° Northwest  Level FlightAware Approximate
04:15AM 26.1631 139.3426 335° Northwest  Level Estimated
04:16AM 26.2648 139.2963 335° Northwest  Level FlightAware Approximate
04:17AM 26.3772 139.2451 335° Northwest  Level Estimated
04:18AM 26.4924 139.1926 335° Northwest  Level FlightAware Approximate
04:19AM 26.6047 139.1412 335° Northwest  Level Estimated
04:20AM 26.7198 139.0885 335° Northwest  Level FlightAware Approximate
04:21AM 26.8322 139.0369 335° Northwest  Level Estimated
04:22AM 26.9472 138.9839 335° Northwest  Level FlightAware Approximate
04:23AM 27.0595 138.9321 335° Northwest  Level Estimated
04:24AM 27.1745 138.8790 335° Northwest  Level FlightAware Approximate
04:25AM 27.2868 138.8269 335° Northwest  Level Estimated
04:26AM 27.3884 138.7798 334° Northwest  Level FlightAware Approximate
04:27AM 27.5006 138.7275 334° Northwest  Level Estimated
04:28AM 27.6155 138.6740 334° Northwest  Level FlightAware Approximate
04:29AM 27.7277 138.6215 334° Northwest  Level Estimated
04:30AM 27.8426 138.5677 334° Northwest  Level FlightAware Approximate
04:31AM 27.9548 138.5150 334° Northwest  Level Estimated
04:32AM 28.0696 138.4610 334° Northwest  Level FlightAware Approximate
04:33AM 28.1817 138.4081 334° Northwest  Level Estimated
04:34AM 28.2965 138.3539 334° Northwest  Level FlightAware Approximate
04:35AM 28.4086 138.3008 333° Northwest  Level Estimated
04:36AM 28.5100 138.2526 333° Northwest  Level FlightAware Approximate
04:37AM 28.6220 138.1993 333° Northwest  Level Estimated
04:38AM 28.7367 138.1445 333° Northwest  Level FlightAware Approximate
04:39AM 28.8487 138.0910 333° Northwest  Level Estimated
04:40AM 28.9634 138.0360 333° Northwest  Level FlightAware Approximate
04:41AM 29.0754 137.9823 332° Northwest  Level Estimated
04:42AM 29.1900 137.9270 332° Northwest  Level FlightAware Approximate
04:43AM 29.3019 137.8730 332° Northwest  Level Estimated
04:44AM 29.4165 137.8176 332° Northwest  Level FlightAware Approximate
04:45AM 29.5283 137.7633 332° Northwest  Level Estimated
04:46AM 29.6295 137.7141 331° Northwest  Level FlightAware Approximate
04:47AM 29.7414 137.6596 331° Northwest  Level Estimated
04:48AM 29.8559 137.6037 331° Northwest  Level FlightAware Approximate
04:49AM 29.9676 137.5489 330° Northwest  Level Estimated
04:50AM 30.0821 137.4928 330° Northwest  Level FlightAware Approximate
04:51AM 30.1938 137.4378 330° Northwest  Level Estimated
04:52AM 30.3082 137.3813 329° Northwest  Level FlightAware Approximate
04:53AM 32.1750 136.0640 332° Northwest 474 545 40,000  Level FlightAware
05:05AM 33.4590 135.2600 344° North 418 481 19,500 -1,440 Descending FlightAware
05:16AM 34.4120 134.9190 87° East 290 334 7,100 -1,080 Descending FlightAware
05:24AM 34.4586 135.9751 220° Southwest  Level Estimated
05:25AM 33.9783 135.4878 336° Northwest  Level FlightAware Approximate
05:26AM 34.0891 135.4279 336° Northwest  Level Estimated
05:27AM 34.2026 135.3664 336° Northwest  Level FlightAware Approximate
05:28AM 34.3134 135.3062 336° Northwest  Level Estimated
05:29AM 34.4241 135.2458 336° Northwest  Level Estimated
05:30AM 34.4273 135.2441 289° West  Level FlightAware Approximate
05:31AM 34.4668 135.1049 109° East  Level Estimated
05:32AM 34.4273 135.2441 289° West  Level FlightAware Approximate
05:33AM 34.4668 135.1049 109° East  Level Estimated
05:34AM 34.4273 135.2441 289° West  Level FlightAware Approximate
05:35AM 34.4668 135.1049 109° East  Level Estimated
05:36AM 34.4273 135.2441 289° West  Level FlightAware Approximate
05:37AM 34.4668 135.1049 109° East  Level Estimated
05:38AM 34.4273 135.2441 289° West  Level FlightAware Approximate
05:39AM 34.4668 135.1049 109° East  Level Estimated
05:40AM 34.4273 135.2441 289° West  Level FlightAware Approximate
05:41AM 34.4668 135.1049 109° East  Level Estimated
05:42AM 34.4273 135.2441 289° West  Level FlightAware Approximate
05:43AM 34.4668 135.1049 109° East  Level Estimated
05:44AM 34.4273 135.2441 289° West  Level FlightAware Approximate
05:45AM 34.4668 135.1049 109° East  Level Estimated
05:46AM 34.4273 135.2441 109° East  Level FlightAware Approximate